Great Valley, New York
Current Conditions -  °F | °C
As of 12:15 AM on Saturday 29 Nov 2014 (Local Time) from KOLE Reporting Station
Overcast Overcast  
Wind Chill: 11°   Ceiling: 8500
Heat Index: 19°   Visibility: 10mi
Dew Point: 16°   Wind: 6mph
Humidity: 86%   Direction: 220°SW
Pressure: 30.11"   Gusts: NA
Location:  42.21°N, 78.64°W
Report Text: KOLE 290515Z AUTO 22005KT 10SM BKN085 OVC110 M07/M09 A3011 RMK AO2
Loading
Personal Weather Stations






























Interactive Weather Map New forecast layout! Learn more

10-Day Weather Forecast

Advertisements
Track Severe Weather on mobile